Time;durP1;ratioP1;P1;durP2;ratioP2;P2;SDS_P1;SDS_P2;PMS_P1;PMS_P2;Temp;Humidity;BMP_temperature;BMP_pressure;BME280_temperature;BME280_humidity;BME280_pressure;Samples;Min_cycle;Max_cycle;Signal;HPM_P1;HPM_P2
2023/03/11 00:02:18;;;;;;;15.97;8.47;;;;;;;41.97;35.94;100912.63;6129174;23;20381;-82
2023/03/11 00:04:44;;;;;;;15.17;5.50;;;;;;;41.75;36.27;100898.22;6128804;23;20425;-83
2023/03/11 00:07:10;;;;;;;19.10;6.77;;;;;;;41.86;36.18;100899.41;6128914;23;20516;-82
2023/03/11 00:09:37;;;;;;;30.03;8.80;;;;;;;41.91;36.15;100900.34;6155300;23;20357;-81
2023/03/11 00:12:04;;;;;;;19.00;7.60;;;;;;;41.97;35.68;100883.44;6128668;23;20814;-85
2023/03/11 00:14:30;;;;;;;16.00;6.67;;;;;;;42.04;35.52;100878.25;6128915;23;20381;-84
2023/03/11 00:16:56;;;;;;;25.17;8.53;;;;;;;42.07;35.45;100879.53;6128615;23;20516;-82
2023/03/11 00:19:22;;;;;;;20.13;7.23;;;;;;;41.89;35.76;100873.44;6128955;23;20391;-81
2023/03/11 00:21:48;;;;;;;14.17;8.40;;;;;;;41.93;35.39;100858.00;6128555;23;20405;-84
2023/03/11 00:24:14;;;;;;;15.33;6.10;;;;;;;42.09;35.33;100860.91;6129068;23;20389;-82
2023/03/11 00:26:40;;;;;;;18.03;7.70;;;;;;;42.12;35.92;100860.25;6128659;23;20393;-82
2023/03/11 00:29:06;;;;;;;15.97;5.67;;;;;;;41.81;36.04;100853.31;6128843;23;20401;-83
2023/03/11 00:31:32;;;;;;;12.37;6.13;;;;;;;41.78;35.87;100848.50;6128688;23;20428;-86
2023/03/11 00:33:58;;;;;;;21.03;7.47;;;;;;;41.87;35.95;100843.00;6128801;23;20434;-85
2023/03/11 00:36:32;;;;;;;14.37;7.30;;;;;;;41.93;35.98;100833.50;6128820;23;20405;-85
2023/03/11 00:39:00;;;;;;;13.60;6.70;;;;;;;41.76;36.18;100834.44;6128564;23;20388;-85
2023/03/11 00:41:27;;;;;;;22.30;8.13;;;;;;;41.79;36.18;100830.25;6128758;23;20381;-84
2023/03/11 00:43:53;;;;;;;15.43;7.50;;;;;;;41.78;36.36;100826.72;6128574;23;20389;-84
2023/03/11 00:46:19;;;;;;;14.10;6.87;;;;;;;41.84;36.62;100816.41;6128862;23;20409;-85
2023/03/11 00:48:45;;;;;;;16.87;6.97;;;;;;;41.78;36.00;100829.44;6128390;23;20393;-84
2023/03/11 00:51:14;;;;;;;13.03;5.60;;;;;;;41.90;36.25;100822.47;6128745;23;20378;-84
2023/03/11 00:53:41;;;;;;;20.33;7.27;;;;;;;41.83;36.68;100837.41;6128495;23;20389;-82
2023/03/11 00:56:12;;;;;;;17.33;7.73;;;;;;;41.86;36.27;100836.72;6155152;23;20361;-86
2023/03/11 00:58:38;;;;;;;15.17;7.60;;;;;;;41.95;36.08;100839.41;6128574;23;20854;-85
2023/03/11 01:01:10;;;;;;;18.40;7.73;;;;;;;42.09;36.35;100845.34;6128702;23;20385;-91
2023/03/11 01:03:36;;;;;;;16.33;5.53;;;;;;;42.16;35.88;100844.00;6128000;23;20433;-88
2023/03/11 01:06:02;;;;;;;14.20;7.10;;;;;;;42.05;35.89;100838.16;6128236;23;20393;-90
2023/03/11 01:08:30;;;;;;;17.13;6.80;;;;;;;42.13;35.57;100838.09;6128303;23;20381;-83
2023/03/11 01:10:56;;;;;;;14.80;7.10;;;;;;;42.16;35.94;100838.53;6128537;23;20396;-88
2023/03/11 01:13:23;;;;;;;18.07;7.07;;;;;;;42.21;36.04;100832.91;6155054;23;20471;-83
2023/03/11 01:15:49;;;;;;;18.60;7.47;;;;;;;42.19;35.73;100837.91;6128321;23;20386;-89
2023/03/11 01:18:15;;;;;;;18.00;7.20;;;;;;;42.27;35.64;100834.28;6128708;23;20448;-91
2023/03/11 01:20:41;;;;;;;22.93;8.27;;;;;;;42.27;35.61;100843.28;6128420;23;20499;-92
2023/03/11 01:23:08;;;;;;;14.60;5.90;;;;;;;42.23;36.30;100820.53;6128371;23;20392;-91
2023/03/11 01:25:35;;;;;;;17.57;7.17;;;;;;;42.21;36.30;100814.63;6128589;23;20713;-91
2023/03/11 01:28:01;;;;;;;12.53;6.47;;;;;;;42.16;36.10;100820.28;6128443;23;20892;-88
2023/03/11 01:30:28;;;;;;;17.83;6.40;;;;;;;42.17;36.21;100821.88;6128499;23;20417;-91
2023/03/11 01:32:55;;;;;;;20.30;7.53;;;;;;;42.10;36.34;100813.44;6128280;23;20425;-90
2023/03/11 01:35:23;;;;;;;14.53;8.27;;;;;;;42.09;36.20;100809.13;6128685;23;20420;-85
2023/03/11 01:37:49;;;;;;;19.43;6.67;;;;;;;42.09;35.89;100817.28;6128471;23;20415;-91
2023/03/11 01:40:18;;;;;;;24.47;8.40;;;;;;;42.05;35.74;100817.19;6128676;23;20385;-95
2023/03/11 01:42:44;;;;;;;11.97;6.50;;;;;;;41.97;36.45;100809.88;6131163;23;20385;-94
2023/03/11 01:45:48;;;;;;;14.93;6.20;;;;;;;41.93;36.12;100817.16;6131355;23;20396;-93
2023/03/11 01:48:14;;;;;;;12.23;6.03;;;;;;;41.92;36.36;100801.91;6059198;23;20400;-95
2023/03/11 01:50:44;;;;;;;15.93;7.37;;;;;;;42.06;36.09;100802.44;6131633;23;20517;-93
2023/03/11 01:53:10;;;;;;;11.83;6.70;;;;;;;42.12;35.79;100797.56;6130434;23;20428;-83
2023/03/11 01:55:37;;;;;;;14.93;6.37;;;;;;;41.89;36.49;100796.34;6130232;23;20396;-92
2023/03/11 01:58:08;;;;;;;19.87;8.10;;;;;;;41.93;36.06;100798.06;6130877;23;20392;-92
2023/03/11 02:00:36;;;;;;;20.00;7.10;;;;;;;41.87;36.50;100796.69;6130839;23;20385;-93
2023/03/11 02:03:11;;;;;;;11.10;5.90;;;;;;;41.97;35.86;100787.28;6130264;23;20475;-92
2023/03/11 02:05:38;;;;;;;17.20;6.70;;;;;;;41.88;35.94;100786.59;6130093;23;20467;-83
2023/03/11 02:08:05;;;;;;;21.70;7.63;;;;;;;41.96;35.83;100774.78;6130384;23;20385;-89
2023/03/11 02:10:31;;;;;;;20.90;6.20;;;;;;;42.03;35.53;100766.88;6130336;23;20743;-92
2023/03/11 02:12:58;;;;;;;12.80;6.40;;;;;;;42.09;35.98;100760.84;6130128;23;20561;-82
2023/03/11 02:15:25;;;;;;;27.30;8.80;;;;;;;42.12;35.78;100768.38;6130162;23;20877;-81
2023/03/11 02:17:55;;;;;;;21.10;8.77;;;;;;;42.11;35.66;100768.69;6105903;23;20396;-85
2023/03/11 02:20:34;;;;;;;13.57;7.80;;;;;;;42.17;35.44;100766.56;6130088;23;20933;-82
2023/03/11 02:23:01;;;;;;;12.47;6.63;;;;;;;42.02;35.71;100765.28;6128064;23;20817;-81
2023/03/11 02:25:38;;;;;;;10.80;6.30;;;;;;;41.97;35.85;100762.75;6130222;23;20492;-86
2023/03/11 02:28:07;;;;;;;16.53;7.40;;;;;;;41.88;36.11;100762.06;6129594;23;20421;-86
2023/03/11 02:30:34;;;;;;;12.70;6.77;;;;;;;41.90;35.97;100766.03;6130046;23;20740;-88
2023/03/11 02:33:02;;;;;;;16.57;8.57;;;;;;;41.89;36.09;100761.72;6156290;23;20849;-88
2023/03/11 02:35:28;;;;;;;15.77;7.07;;;;;;;41.98;35.91;100767.06;6129747;23;20413;-87
2023/03/11 02:37:54;;;;;;;10.43;5.90;;;;;;;42.03;36.10;100761.41;6130045;23;20381;-88
2023/03/11 02:40:24;;;;;;;15.23;6.87;;;;;;;41.93;35.97;100751.75;6128937;23;20385;-87
2023/03/11 02:42:57;;;;;;;22.37;8.30;;;;;;;41.92;35.91;100747.41;6130098;23;20862;-87
2023/03/11 02:45:25;;;;;;;12.83;5.80;;;;;;;41.82;36.19;100743.22;6129667;23;20389;-81
2023/03/11 02:47:55;;;;;;;15.77;6.80;;;;;;;41.74;36.43;100738.66;6130139;23;20400;-82
2023/03/11 02:50:21;;;;;;;20.30;7.30;;;;;;;41.82;36.27;100729.59;6155900;23;20443;-82
2023/03/11 02:52:49;;;;;;;19.27;7.80;;;;;;;41.89;35.83;100729.03;6129729;23;20425;-81
2023/03/11 02:55:16;;;;;;;12.43;6.50;;;;;;;41.97;36.09;100730.06;6129770;23;20389;-81
2023/03/11 02:57:44;;;;;;;21.00;8.83;;;;;;;41.99;36.24;100725.06;6129668;23;20385;-82
2023/03/11 03:00:14;;;;;;;15.30;7.60;;;;;;;42.05;36.00;100718.25;6129827;23;20443;-82
2023/03/11 03:02:40;;;;;;;17.17;8.60;;;;;;;42.06;35.85;100711.69;6129610;23;20381;-82
2023/03/11 03:05:07;;;;;;;16.90;7.60;;;;;;;42.14;35.84;100717.03;6129639;23;20560;-82
2023/03/11 03:07:33;;;;;;;20.57;8.30;;;;;;;42.12;36.19;100708.41;6129475;23;20385;-85
2023/03/11 03:09:59;;;;;;;11.03;5.83;;;;;;;42.09;35.96;100706.34;6129643;23;20435;-88
2023/03/11 03:12:25;;;;;;;13.50;7.27;;;;;;;42.16;35.99;100697.63;6129640;23;20484;-86
2023/03/11 03:14:51;;;;;;;15.83;7.20;;;;;;;42.18;35.59;100694.59;6129463;23;20416;-87
2023/03/11 03:17:18;;;;;;;17.10;6.53;;;;;;;42.15;35.84;100690.56;6130129;23;20426;-91
2023/03/11 03:19:44;;;;;;;17.20;7.70;;;;;;;42.16;35.95;100700.38;6130169;23;20464;-93
2023/03/11 03:22:10;;;;;;;14.60;6.83;;;;;;;42.05;36.14;100694.56;6129490;23;20389;-92
2023/03/11 03:24:36;;;;;;;18.47;6.87;;;;;;;42.04;36.15;100697.59;6129694;23;20405;-81
2023/03/11 03:27:02;;;;;;;21.07;7.30;;;;;;;41.93;36.20;100694.53;6155394;23;20369;-82
2023/03/11 03:29:27;;;;;;;12.03;5.43;;;;;;;41.95;36.29;100705.88;6129696;23;20395;-81
2023/03/11 03:31:53;;;;;;;17.13;6.60;;;;;;;41.68;36.51;100707.28;6128993;23;20428;-84
2023/03/11 03:34:19;;;;;;;11.93;6.20;;;;;;;41.44;37.20;100707.19;6129461;23;20392;-90
2023/03/11 03:36:45;;;;;;;15.30;6.97;;;;;;;41.38;36.77;100713.97;6128978;23;20395;-85
2023/03/11 03:39:11;;;;;;;13.97;8.20;;;;;;;41.21;37.81;100715.66;6129205;23;20471;-81
2023/03/11 03:41:37;;;;;;;18.13;8.07;;;;;;;41.25;38.07;100713.88;6129445;23;20385;-87
2023/03/11 03:44:04;;;;;;;13.47;7.17;;;;;;;41.51;37.40;100718.34;6129144;23;20445;-86
2023/03/11 03:46:30;;;;;;;24.17;9.00;;;;;;;41.52;37.31;100712.53;6129305;23;20424;-88
2023/03/11 03:48:56;;;;;;;14.20;7.43;;;;;;;41.48;37.23;100716.25;6128506;23;20381;-87
2023/03/11 03:51:22;;;;;;;19.83;7.10;;;;;;;41.29;37.91;100725.69;6129078;23;20381;-87
2023/03/11 03:53:48;;;;;;;13.80;6.50;;;;;;;41.31;37.53;100717.19;6128361;23;20405;-87
2023/03/11 03:56:17;;;;;;;14.67;7.43;;;;;;;41.19;37.18;100715.22;6129326;23;20712;-91
2023/03/11 03:58:43;;;;;;;22.40;9.67;;;;;;;41.34;37.18;100722.78;6128544;23;20782;-92
2023/03/11 04:01:12;;;;;;;21.50;9.03;;;;;;;41.48;37.31;100719.00;6129459;23;20732;-91
2023/03/11 04:03:38;;;;;;;16.73;8.30;;;;;;;41.63;37.06;100723.03;6128529;23;20490;-87
2023/03/11 04:06:19;;;;;;;22.57;8.17;;;;;;;41.17;37.35;100731.06;6129081;23;20397;-88
2023/03/11 04:08:45;;;;;;;17.40;9.13;;;;;;;41.49;37.08;100723.28;6128684;23;20480;-88
2023/03/11 04:11:12;;;;;;;15.83;7.87;;;;;;;41.14;37.25;100730.94;6129036;23;20393;-88
2023/03/11 04:13:38;;;;;;;17.70;8.10;;;;;;;41.27;37.64;100725.22;6128679;23;20729;-88
2023/03/11 04:16:05;;;;;;;19.50;7.30;;;;;;;41.55;36.64;100732.84;6129262;23;20843;-87
2023/03/11 04:18:32;;;;;;;17.93;8.07;;;;;;;41.42;36.55;100728.50;6128935;23;20880;-88
2023/03/11 04:20:58;;;;;;;19.27;7.63;;;;;;;41.52;36.83;100730.81;6128960;23;20865;-87
2023/03/11 04:23:24;;;;;;;12.40;7.20;;;;;;;41.54;36.91;100736.72;6129023;23;20385;-87
2023/03/11 04:25:50;;;;;;;16.70;7.67;;;;;;;41.51;36.88;100738.19;6129604;23;20385;-93
2023/03/11 04:28:16;;;;;;;15.53;7.40;;;;;;;41.74;36.80;100730.47;6129740;23;20385;-92
2023/03/11 04:30:42;;;;;;;25.23;10.17;;;;;;;41.76;36.79;100738.31;6129750;23;20456;-93
2023/03/11 04:33:08;;;;;;;18.23;8.87;;;;;;;41.69;37.04;100733.38;6128496;23;20504;-90
2023/03/11 04:35:36;;;;;;;16.00;7.30;;;;;;;41.60;36.96;100740.81;6128825;23;20420;-86
2023/03/11 04:38:02;;;;;;;18.47;9.07;;;;;;;41.62;36.93;100744.03;6128729;23;20439;-86
2023/03/11 04:40:28;;;;;;;19.03;8.23;;;;;;;41.39;37.30;100740.84;6128239;23;20389;-88
2023/03/11 04:42:54;;;;;;;14.13;9.10;;;;;;;41.37;37.24;100745.03;6128933;23;20436;-88
2023/03/11 04:45:20;;;;;;;14.30;7.27;;;;;;;41.38;37.29;100749.38;6128012;23;20520;-86
2023/03/11 04:47:50;;;;;;;13.47;6.10;;;;;;;41.45;37.69;100755.06;6128916;23;20394;-86
2023/03/11 04:50:17;;;;;;;15.37;8.87;;;;;;;41.50;37.90;100766.56;6128813;23;20791;-88
2023/03/11 04:52:44;;;;;;;15.90;7.67;;;;;;;41.49;37.25;100758.69;6128355;23;20944;-81
2023/03/11 04:55:12;;;;;;;16.73;7.27;;;;;;;41.54;37.12;100766.66;6155046;23;20368;-89
2023/03/11 04:57:39;;;;;;;16.63;8.30;;;;;;;41.49;37.29;100766.88;6127822;23;20428;-88
2023/03/11 05:00:10;;;;;;;14.70;7.53;;;;;;;41.44;37.25;100777.97;6128010;23;20405;-87
2023/03/11 05:02:37;;;;;;;12.33;7.43;;;;;;;41.56;37.10;100778.84;6128576;23;20396;-86
2023/03/11 05:05:03;;;;;;;16.17;8.17;;;;;;;41.51;37.27;100784.47;6128461;23;20444;-88
2023/03/11 05:07:29;;;;;;;18.07;7.93;;;;;;;41.25;37.82;100779.22;6128389;23;20854;-86
2023/03/11 05:09:55;;;;;;;15.20;7.30;;;;;;;41.45;37.33;100779.56;6128550;23;20451;-88
2023/03/11 05:12:21;;;;;;;16.20;7.43;;;;;;;41.52;37.52;100777.09;6128508;23;20451;-87
2023/03/11 05:14:53;;;;;;;22.83;9.07;;;;;;;41.48;37.45;100776.97;6126644;23;20459;-88
2023/03/11 05:17:19;;;;;;;17.97;7.23;;;;;;;41.53;37.49;100784.13;6126420;23;20873;-88
2023/03/11 05:19:45;;;;;;;31.57;10.47;;;;;;;41.35;37.41;100788.91;6126268;23;20389;-86
2023/03/11 05:22:11;;;;;;;18.23;8.53;;;;;;;41.43;37.64;100792.69;6151232;23;20408;-87
2023/03/11 05:24:38;;;;;;;13.00;7.57;;;;;;;41.35;37.81;100786.19;6126487;23;20389;-86
2023/03/11 05:27:04;;;;;;;21.93;9.07;;;;;;;41.35;37.73;100786.19;6126194;23;20850;-87
2023/03/11 05:29:31;;;;;;;23.00;9.10;;;;;;;41.34;37.41;100788.13;6127384;23;20452;-88
2023/03/11 05:31:57;;;;;;;25.47;9.13;;;;;;;41.40;37.39;100787.94;6128277;23;20433;-88
2023/03/11 05:34:23;;;;;;;20.83;7.93;;;;;;;41.51;37.42;100789.13;6128268;23;20539;-85
2023/03/11 05:36:49;;;;;;;16.03;8.10;;;;;;;41.55;37.01;100788.09;6154961;23;20403;-81
2023/03/11 05:39:15;;;;;;;18.83;7.50;;;;;;;41.54;37.15;100786.53;6128224;23;20817;-86
2023/03/11 05:41:41;;;;;;;17.40;8.40;;;;;;;41.47;37.36;100783.53;6128046;23;20413;-88
2023/03/11 05:44:07;;;;;;;21.87;7.83;;;;;;;41.46;37.61;100783.88;6128423;23;20385;-87
2023/03/11 05:46:34;;;;;;;15.00;7.40;;;;;;;41.39;37.81;100780.91;6128297;23;20404;-88
2023/03/11 05:49:00;;;;;;;20.03;8.67;;;;;;;41.37;37.83;100783.13;6128406;23;20405;-87
2023/03/11 05:51:26;;;;;;;13.93;7.57;;;;;;;41.30;37.91;100781.72;6154240;23;20493;-82
2023/03/11 05:53:52;;;;;;;15.50;6.47;;;;;;;41.33;37.77;100781.09;6128419;23;20892;-82
2023/03/11 05:56:20;;;;;;;20.23;8.13;;;;;;;41.30;38.16;100781.72;6128173;23;20476;-82
2023/03/11 05:58:46;;;;;;;24.30;10.20;;;;;;;41.40;37.82;100780.56;6128232;23;20385;-84
2023/03/11 06:01:15;;;;;;;16.17;10.30;;;;;;;41.48;37.49;100782.41;6128140;23;20385;-84
2023/03/11 06:03:42;;;;;;;24.27;11.87;;;;;;;41.50;37.95;100782.09;6127953;23;20436;-82
2023/03/11 06:06:11;;;;;;;26.60;9.07;;;;;;;41.38;38.08;100790.19;6128232;23;20727;-81
2023/03/11 06:08:38;;;;;;;31.83;10.60;;;;;;;41.34;38.39;100793.56;6127809;23;20388;-82
2023/03/11 06:11:09;;;;;;;21.33;7.80;;;;;;;41.42;38.05;100794.63;6154544;23;20361;-81
2023/03/11 06:13:36;;;;;;;17.40;7.83;;;;;;;41.52;38.04;100796.97;6127643;23;20494;-84
2023/03/11 06:16:03;;;;;;;20.50;9.60;;;;;;;41.53;37.90;100795.03;6127893;23;20400;-82
2023/03/11 06:18:29;;;;;;;20.97;8.50;;;;;;;41.30;38.22;100797.25;6125782;23;20385;-82
2023/03/11 06:21:00;;;;;;;18.73;8.67;;;;;;;41.41;38.18;100814.03;6127828;23;20388;-82
2023/03/11 06:23:27;;;;;;;12.97;7.30;;;;;;;41.41;38.01;100814.03;6127937;23;20389;-83
2023/03/11 06:26:14;;;;;;;16.33;8.40;;;;;;;41.34;38.25;100820.00;6127595;23;20808;-85
2023/03/11 06:28:45;;;;;;;18.63;9.07;;;;;;;41.29;37.88;100823.66;6128869;23;20871;-84
2023/03/11 06:31:18;;;;;;;15.63;8.33;;;;;;;41.38;37.59;100822.88;6129542;23;20389;-84
2023/03/11 06:33:45;;;;;;;18.00;8.33;;;;;;;41.30;38.31;100833.44;6129790;23;20474;-84
2023/03/11 06:36:13;;;;;;;15.30;8.20;;;;;;;41.31;37.88;100835.03;6129514;23;20421;-91
2023/03/11 06:38:39;;;;;;;14.93;8.23;;;;;;;41.36;37.72;100841.44;6130145;23;20421;-84
2023/03/11 06:41:06;;;;;;;14.47;7.97;;;;;;;41.33;38.24;100851.06;6129823;23;20385;-84
2023/03/11 06:43:34;;;;;;;14.83;8.10;;;;;;;41.49;38.31;100851.28;6129644;23;20516;-83
2023/03/11 06:46:00;;;;;;;21.07;9.70;;;;;;;41.46;37.84;100857.38;6129535;23;20475;-83
2023/03/11 06:48:27;;;;;;;12.57;8.23;;;;;;;41.49;38.08;100864.88;6129259;23;20406;-90
2023/03/11 08:38:14;;;;;;;27.00;11.40;;;;;;;42.50;36.80;100968.31;5114632;27;20508;-85
2023/03/11 08:40:40;;;;;;;24.60;10.07;;;;;;;42.52;36.81;100977.75;5085742;28;20456;-88
2023/03/11 08:43:06;;;;;;;19.30;11.27;;;;;;;42.62;36.63;100982.03;5090987;28;20420;-85
2023/03/11 08:45:33;;;;;;;26.63;10.73;;;;;;;42.66;36.10;100982.94;5074409;28;20471;-83
2023/03/11 08:47:59;;;;;;;17.70;9.40;;;;;;;42.73;36.42;100988.66;5089834;28;20416;-82
2023/03/11 08:50:25;;;;;;;15.10;8.53;;;;;;;42.66;35.59;100985.66;5089141;28;20486;-86
2023/03/11 08:52:51;;;;;;;19.73;10.07;;;;;;;42.61;36.13;100986.69;5080320;28;21247;-82
2023/03/11 08:55:23;;;;;;;16.40;8.33;;;;;;;42.74;35.85;100984.78;5077099;28;20425;-90
2023/03/11 08:57:50;;;;;;;22.53;7.67;;;;;;;42.73;35.91;100993.31;5072443;22;20534;-82
2023/03/11 09:00:16;;;;;;;19.10;7.70;;;;;;;42.48;36.21;100993.19;5026419;28;21008;-81
2023/03/11 09:02:42;;;;;;;17.60;7.30;;;;;;;42.27;36.52;101001.38;5026797;28;20956;-85
2023/03/11 09:05:09;;;;;;;21.40;7.80;;;;;;;42.35;37.04;101002.44;5026805;28;20447;-81
2023/03/11 09:07:42;;;;;;;29.63;12.43;;;;;;;42.51;36.83;101008.09;5027699;28;20670;-87
2023/03/11 09:10:10;;;;;;;15.57;7.90;;;;;;;42.63;36.20;101011.69;5007636;28;20456;-86
2023/03/11 09:12:36;;;;;;;18.00;7.50;;;;;;;42.70;36.30;101015.81;5022395;28;20443;-84
2023/03/11 09:15:02;;;;;;;15.37;8.23;;;;;;;42.74;36.31;101012.06;5024560;28;20557;-86
2023/03/11 09:17:28;;;;;;;20.40;7.53;;;;;;;42.73;35.83;101021.41;5026560;28;20585;-90
2023/03/11 09:19:54;;;;;;;20.43;8.90;;;;;;;42.80;36.15;101018.91;5025756;28;20519;-88
2023/03/11 09:22:20;;;;;;;15.53;6.90;;;;;;;42.74;36.28;101020.25;5023139;28;20900;-86
2023/03/11 09:24:46;;;;;;;14.20;7.60;;;;;;;42.86;35.81;101016.78;5023874;28;20428;-87
2023/03/11 09:27:14;;;;;;;18.07;6.93;;;;;;;42.73;36.00;101020.59;5017580;28;20454;-86
2023/03/11 09:29:40;;;;;;;15.93;6.60;;;;;;;42.53;36.55;101012.06;5018386;28;20279;-85
2023/03/11 09:32:06;;;;;;;16.13;7.03;;;;;;;42.72;36.24;101018.97;5020411;28;20504;-83
2023/03/11 09:34:32;;;;;;;13.47;7.63;;;;;;;42.68;36.41;101023.53;5020154;28;20511;-86
2023/03/11 09:37:00;;;;;;;23.27;9.80;;;;;;;42.82;36.20;101022.09;5010805;28;20483;-84
2023/03/11 09:39:26;;;;;;;14.57;8.20;;;;;;;42.64;36.05;101028.84;5003072;28;20426;-83
2023/03/11 09:42:10;;;;;;;13.80;6.60;;;;;;;42.57;36.24;101025.84;5000361;28;20993;-83
2023/03/11 09:44:43;;;;;;;21.73;7.50;;;;;;;42.55;36.29;101037.09;4999070;28;20492;-82
2023/03/11 09:47:18;;;;;;;16.03;7.10;;;;;;;42.56;36.29;101032.44;5001339;28;20432;-82
2023/03/11 09:49:59;;;;;;;19.70;8.27;;;;;;;42.52;36.83;101026.84;4993273;28;20436;-82
2023/03/11 09:52:42;;;;;;;20.23;8.50;;;;;;;42.72;36.62;101041.59;4989197;28;20445;-84
2023/03/11 09:55:30;;;;;;;18.20;9.53;;;;;;;42.81;36.11;101031.41;5001567;28;21051;-83
2023/03/11 09:57:59;;;;;;;15.77;8.90;;;;;;;42.83;36.17;101034.59;4979912;28;20488;-83
2023/03/11 10:00:25;;;;;;;12.50;7.17;;;;;;;42.70;35.94;101032.16;4979457;28;20419;-83
2023/03/11 10:02:51;;;;;;;23.43;7.97;;;;;;;42.79;35.77;101035.63;5005169;28;20827;-82
2023/03/11 10:05:26;;;;;;;16.90;6.20;;;;;;;42.76;36.07;101031.63;5000432;28;20970;-82
2023/03/11 10:08:10;;;;;;;13.70;6.53;;;;;;;42.75;35.95;101023.78;5000190;28;20944;-83
2023/03/11 10:10:46;;;;;;;20.80;8.10;;;;;;;42.75;36.39;101024.56;4984448;28;20457;-84
2023/03/11 10:13:35;;;;;;;15.60;8.23;;;;;;;42.91;35.61;101027.47;4984886;28;20425;-84
2023/03/11 10:16:07;;;;;;;14.60;6.00;;;;;;;42.85;35.32;101018.69;4985926;28;20536;-84
2023/03/11 10:18:43;;;;;;;16.30;8.37;;;;;;;42.98;35.34;101022.28;4997328;28;20418;-83
2023/03/11 10:21:39;;;;;;;16.67;6.27;;;;;;;42.81;35.59;101034.13;4992405;28;20448;-85
2023/03/11 10:24:36;;;;;;;13.00;6.93;;;;;;;42.72;35.20;101027.97;4971122;28;20433;-85
2023/03/11 10:27:13;;;;;;;22.83;7.93;;;;;;;42.86;35.43;101025.75;5002958;28;20444;-86
2023/03/11 10:29:49;;;;;;;13.47;6.80;;;;;;;43.05;35.40;101030.72;4985771;28;20520;-85
2023/03/11 10:32:43;;;;;;;13.40;6.27;;;;;;;42.98;35.23;101032.38;4986611;28;20437;-84
2023/03/11 10:35:50;;;;;;;13.23;6.67;;;;;;;42.79;35.79;101020.06;4989801;28;20845;-84
2023/03/11 10:38:34;;;;;;;18.70;6.70;;;;;;;42.89;35.42;101022.34;4951663;28;20431;-84
2023/03/11 10:41:05;;;;;;;16.67;6.93;;;;;;;42.87;35.04;101030.06;4986639;28;20944;-84
2023/03/11 10:44:00;;;;;;;11.30;6.60;;;;;;;42.81;35.49;101027.88;4979232;28;20433;-85
2023/03/11 10:46:27;;;;;;;12.77;7.60;;;;;;;42.97;35.25;101017.13;4930443;28;20980;-82
2023/03/11 10:48:54;;;;;;;12.00;5.83;;;;;;;43.12;35.34;101021.97;4976450;28;20442;-85
2023/03/11 10:51:25;;;;;;;21.83;6.50;;;;;;;43.13;35.10;101032.53;4995940;28;20508;-85
2023/03/11 10:54:20;;;;;;;15.63;7.33;;;;;;;43.08;35.36;101026.50;4993759;28;20955;-86
2023/03/11 10:56:54;;;;;;;11.03;7.23;;;;;;;43.17;35.14;101024.47;4995224;28;20861;-86
2023/03/11 10:59:29;;;;;;;14.13;7.80;;;;;;;43.17;35.16;101024.47;4976382;28;20454;-83
2023/03/11 11:02:00;;;;;;;20.13;6.97;;;;;;;43.16;35.50;101017.44;4986811;28;20444;-82
2023/03/11 11:04:38;;;;;;;19.70;7.17;;;;;;;43.11;35.43;101020.38;4980848;28;20437;-78
2023/03/11 11:07:34;;;;;;;13.57;7.20;;;;;;;43.30;35.23;101006.19;4989532;28;20429;-87
2023/03/11 11:10:27;;;;;;;14.60;6.53;;;;;;;43.26;34.96;100984.19;4981663;28;20433;-88
2023/03/11 11:12:58;;;;;;;11.33;6.73;;;;;;;43.29;34.77;100982.75;4990624;28;20432;-87
2023/03/11 11:15:39;;;;;;;18.70;7.43;;;;;;;43.42;34.68;100979.69;4984345;28;20426;-86
2023/03/11 11:18:26;;;;;;;15.07;7.80;;;;;;;43.42;34.52;100976.97;5002923;28;20540;-87
2023/03/11 11:21:02;;;;;;;18.10;6.80;;;;;;;43.35;34.26;100970.44;4992964;28;20504;-87
2023/03/11 11:23:36;;;;;;;14.60;7.97;;;;;;;43.36;34.68;100964.66;4992633;28;20981;-89
2023/03/11 11:26:07;;;;;;;18.90;9.10;;;;;;;43.25;34.18;100958.03;4982291;28;20467;-87
2023/03/11 11:28:34;;;;;;;19.33;7.13;;;;;;;43.09;34.64;100954.38;4991504;28;20472;-87
2023/03/11 11:31:04;;;;;;;13.73;7.40;;;;;;;43.22;34.53;100944.25;4991940;28;20433;-87
2023/03/11 11:33:32;;;;;;;22.10;7.70;;;;;;;43.35;34.80;100943.16;5003230;28;20429;-88
2023/03/11 11:36:05;;;;;;;16.53;7.80;;;;;;;43.41;34.62;100941.81;4992567;28;20503;-87
2023/03/11 11:39:17;;;;;;;19.50;9.10;;;;;;;43.48;34.15;100941.22;4989682;28;20429;-85
2023/03/11 11:41:45;;;;;;;14.37;5.93;;;;;;;43.40;34.23;100949.22;4991195;28;20838;-84
2023/03/11 11:44:18;;;;;;;15.67;8.00;;;;;;;43.13;34.59;100942.44;4992088;28;20849;-84
2023/03/11 11:47:08;;;;;;;14.93;8.13;;;;;;;43.26;34.41;100947.91;4992703;28;21029;-83
2023/03/11 11:49:36;;;;;;;13.37;5.43;;;;;;;43.16;34.56;100930.88;4991569;28;20429;-84
2023/03/11 11:52:13;;;;;;;12.30;7.10;;;;;;;43.10;35.01;100917.78;4992335;28;20512;-83
2023/03/11 11:54:57;;;;;;;16.23;6.87;;;;;;;43.22;34.60;100912.31;4992159;28;20437;-82
2023/03/11 11:57:23;;;;;;;9.03;5.87;;;;;;;43.28;34.72;100901.94;4991925;28;20499;-83
2023/03/11 11:59:50;;;;;;;13.93;7.20;;;;;;;43.10;35.24;100893.22;4991881;28;20421;-84
2023/03/11 12:02:18;;;;;;;15.37;6.90;;;;;;;43.34;34.63;100906.03;4992054;28;20519;-83
2023/03/11 12:04:50;;;;;;;21.67;7.70;;;;;;;43.13;35.05;100909.69;4991983;28;20952;-83
2023/03/11 12:07:19;;;;;;;16.00;6.13;;;;;;;43.24;34.94;100903.78;4991454;28;20491;-82
2023/03/11 12:10:10;;;;;;;17.57;6.23;;;;;;;43.32;34.87;100900.13;4992271;28;20426;-83
2023/03/11 12:57:20;;;;;;;16.60;7.77;;;;;;;43.84;34.49;100859.22;6107392;23;1882091;-79
2023/03/11 12:59:55;;;;;;;17.77;7.33;;;;;;;43.95;34.11;100852.09;6164862;23;20454;-77
2023/03/11 13:02:43;;;;;;;14.60;6.87;;;;;;;44.07;33.80;100858.63;6165701;23;20474;-81
2023/03/11 13:05:29;;;;;;;15.43;6.00;;;;;;;44.23;33.53;100854.03;6165046;23;20494;-77
2023/03/11 13:08:03;;;;;;;14.80;6.87;;;;;;;44.36;33.30;100852.00;6165998;23;20769;-79
2023/03/11 13:10:50;;;;;;;10.43;6.60;;;;;;;44.47;32.93;100861.28;6165461;23;20383;-77
2023/03/11 13:13:35;;;;;;;10.30;6.40;;;;;;;44.58;32.87;100859.66;6192555;23;20351;-77
2023/03/11 13:16:13;;;;;;;13.97;6.43;;;;;;;44.58;32.80;100845.19;6165865;23;20375;-77
2023/03/11 13:18:40;;;;;;;15.73;8.80;;;;;;;44.54;32.09;100825.09;6165956;23;20425;-77
2023/03/11 13:21:29;;;;;;;14.90;6.40;;;;;;;44.66;32.67;100834.03;6166168;23;20478;-77
2023/03/11 13:24:24;;;;;;;14.07;6.50;;;;;;;44.76;32.96;100830.78;6166161;23;20878;-76
2023/03/11 13:27:00;;;;;;;8.50;5.10;;;;;;;44.80;32.65;100827.31;6166424;23;20418;-78
2023/03/11 13:29:54;;;;;;;9.70;6.50;;;;;;;44.70;32.59;100804.03;6166409;23;20938;-77
2023/03/11 13:32:38;;;;;;;12.70;7.33;;;;;;;44.74;33.01;100826.78;6165771;23;20470;-77
2023/03/11 13:35:29;;;;;;;10.90;6.20;;;;;;;44.72;32.86;100813.47;6166231;23;20402;-76
2023/03/11 13:38:46;;;;;;;11.07;5.90;;;;;;;44.65;32.92;100776.94;6166120;23;20473;-77
2023/03/11 13:41:31;;;;;;;13.40;7.20;;;;;;;44.72;32.84;100760.69;6086857;23;20385;-79
2023/03/11 13:44:10;;;;;;;16.23;6.67;;;;;;;44.72;32.91;100753.25;6165889;23;20386;-78
2023/03/11 13:46:39;;;;;;;16.60;8.37;;;;;;;44.72;32.09;100747.00;6165285;23;20379;-78
2023/03/11 13:49:28;;;;;;;14.90;6.73;;;;;;;44.78;32.36;100744.78;6163532;23;20415;-78
2023/03/11 13:51:56;;;;;;;19.77;10.77;;;;;;;44.65;33.12;100755.84;6186275;23;20348;-78
2023/03/11 13:54:28;;;;;;;15.53;7.97;;;;;;;44.63;32.28;100773.75;6159537;23;20390;-79
2023/03/11 13:57:00;;;;;;;13.97;7.33;;;;;;;44.39;32.58;100764.59;6185432;23;20438;-79
2023/03/11 13:59:31;;;;;;;16.10;7.40;;;;;;;44.30;32.65;100758.50;6189235;23;20375;-84
2023/03/11 14:02:17;;;;;;;18.93;8.47;;;;;;;44.34;32.78;100753.91;6189010;23;20403;-77
2023/03/11 14:04:49;;;;;;;17.50;7.33;;;;;;;44.32;32.92;100733.53;6189110;23;20382;-81
2023/03/11 14:07:36;;;;;;;15.37;7.40;;;;;;;44.34;33.16;100742.97;6188474;23;20427;-81